SKW1225 KLAX-KELP
Flight info
| Callsign | SKW1225 |
|---|---|
| Flight time | N/A |
| Altitude | 35000 |
| Route | DOTSS2 CNERY BLH J169 KOFFA J50 ITEMM TEEES MOLLY5 |
| Aircraft | E75L/M-SDE3GILORVW/S |
Departure
| Time | N/A |
|---|---|
| Airport | Los Angeles International Airport (KLAX) |
Arrival
| Time | 2026-05-03 21:28 |
|---|---|
| Airport | El Paso International Airport (KELP) |
| Time | Latitude | Longitude | Altitude | Speed | Heading |
|---|---|---|---|---|---|
| 2026-05-03 20:15 | 33.58057 | -117.53743 | 30409 ft | 504 kts | 114° |
| 2026-05-03 20:15 | 33.57068 | -117.49751 | 30750 ft | 507 kts | 114° |
| 2026-05-03 20:15 | 33.56060 | -117.45683 | 31061 ft | 510 kts | 114° |
| 2026-05-03 20:15 | 33.55042 | -117.41588 | 31387 ft | 513 kts | 114° |
| 2026-05-03 20:16 | 33.54022 | -117.37487 | 31649 ft | 516 kts | 113° |
| 2026-05-03 20:16 | 33.52990 | -117.33339 | 31930 ft | 519 kts | 114° |
| 2026-05-03 20:16 | 33.51946 | -117.29179 | 32204 ft | 522 kts | 114° |
| 2026-05-03 20:16 | 33.50901 | -117.24993 | 32547 ft | 524 kts | 112° |
| 2026-05-03 20:17 | 33.50278 | -117.20641 | 32859 ft | 536 kts | 99° |
| 2026-05-03 20:17 | 33.50181 | -117.16160 | 33226 ft | 539 kts | 93° |
| 2026-05-03 20:17 | 33.50200 | -117.11674 | 33662 ft | 538 kts | 94° |
| 2026-05-03 20:17 | 33.50190 | -117.07248 | 33993 ft | 539 kts | 94° |
| 2026-05-03 20:18 | 33.50152 | -117.02764 | 34313 ft | 538 kts | 95° |
| 2026-05-03 20:18 | 33.50101 | -116.98277 | 34653 ft | 537 kts | 95° |
| 2026-05-03 20:18 | 33.50043 | -116.93816 | 35047 ft | 534 kts | 95° |
| 2026-05-03 20:19 | 33.49910 | -116.84792 | 35047 ft | 549 kts | 95° |
| 2026-05-03 20:19 | 33.49772 | -116.75522 | 34920 ft | 558 kts | 95° |
| 2026-05-03 20:20 | 33.49627 | -116.66194 | 34899 ft | 560 kts | 95° |
| 2026-05-03 20:20 | 33.49473 | -116.56847 | 34847 ft | 561 kts | 95° |
| 2026-05-03 20:21 | 33.49311 | -116.47555 | 34825 ft | 562 kts | 95° |
| 2026-05-03 20:21 | 33.49148 | -116.38204 | 34843 ft | 562 kts | 94° |
| 2026-05-03 20:22 | 33.49014 | -116.28836 | 34820 ft | 563 kts | 94° |
| 2026-05-03 20:22 | 33.48869 | -116.19482 | 34738 ft | 557 kts | 94° |
| 2026-05-03 20:23 | 33.48717 | -116.10182 | 34767 ft | 559 kts | 94° |
| 2026-05-03 20:23 | 33.49129 | -116.00942 | 34770 ft | 563 kts | 75° |
| 2026-05-03 20:24 | 33.51761 | -115.92120 | 34787 ft | 561 kts | 68° |
| 2026-05-03 20:24 | 33.54428 | -115.83341 | 34760 ft | 560 kts | 69° |
| 2026-05-03 20:25 | 33.57023 | -115.74555 | 34763 ft | 558 kts | 69° |
| 2026-05-03 20:25 | 33.59590 | -115.65746 | 34783 ft | 560 kts | 69° |
| 2026-05-03 20:26 | 33.61805 | -115.56818 | 34790 ft | 559 kts | 85° |
| 2026-05-03 20:26 | 33.61876 | -115.52231 | 34808 ft | 555 kts | 96° |
| 2026-05-03 20:26 | 33.61658 | -115.47593 | 34802 ft | 556 kts | 96° |
| 2026-05-03 20:27 | 33.61335 | -115.38327 | 34773 ft | 556 kts | 95° |
| 2026-05-03 20:27 | 33.61077 | -115.29058 | 34772 ft | 554 kts | 95° |
| 2026-05-03 20:28 | 33.60827 | -115.19805 | 34756 ft | 555 kts | 95° |
| 2026-05-03 20:28 | 33.60580 | -115.10561 | 34779 ft | 555 kts | 95° |
| 2026-05-03 20:29 | 33.60328 | -115.01312 | 34780 ft | 555 kts | 94° |
| 2026-05-03 20:29 | 33.60072 | -114.92110 | 34786 ft | 557 kts | 94° |
| 2026-05-03 20:30 | 33.59808 | -114.82831 | 34797 ft | 556 kts | 95° |
| 2026-05-03 20:30 | 33.59497 | -114.73547 | 34860 ft | 553 kts | 98° |
| 2026-05-03 20:31 | 33.58630 | -114.64366 | 34822 ft | 554 kts | 100° |
| 2026-05-03 20:31 | 33.57771 | -114.55181 | 34823 ft | 554 kts | 99° |
| 2026-05-03 20:32 | 33.56931 | -114.45988 | 34823 ft | 554 kts | 99° |
| 2026-05-03 20:32 | 33.56097 | -114.36862 | 34816 ft | 554 kts | 99° |
| 2026-05-03 20:33 | 33.55256 | -114.27704 | 34809 ft | 553 kts | 99° |
| 2026-05-03 20:33 | 33.54411 | -114.18531 | 34818 ft | 554 kts | 99° |
| 2026-05-03 20:34 | 33.53558 | -114.09348 | 34822 ft | 553 kts | 100° |
| 2026-05-03 20:34 | 33.52700 | -114.00191 | 34848 ft | 552 kts | 99° |
| 2026-05-03 20:35 | 33.51842 | -113.91109 | 34933 ft | 552 kts | 99° |
| 2026-05-03 20:35 | 33.50967 | -113.81964 | 35020 ft | 552 kts | 100° |
| 2026-05-03 20:36 | 33.50082 | -113.72824 | 35103 ft | 551 kts | 99° |
| 2026-05-03 20:36 | 33.49193 | -113.63702 | 35158 ft | 551 kts | 100° |
| 2026-05-03 20:37 | 33.48297 | -113.54573 | 35153 ft | 552 kts | 100° |
| 2026-05-03 20:37 | 33.47395 | -113.45451 | 35086 ft | 551 kts | 100° |
| 2026-05-03 20:37 | 33.46942 | -113.40889 | 34837 ft | 550 kts | 99° |
| 2026-05-03 20:38 | 33.46317 | -113.36394 | 34802 ft | 545 kts | 111° |
| 2026-05-03 20:38 | 33.44818 | -113.32380 | 34873 ft | 528 kts | 131° |
| 2026-05-03 20:38 | 33.42520 | -113.29059 | 34895 ft | 512 kts | 144° |
| 2026-05-03 20:39 | 33.37566 | -113.22909 | 34825 ft | 513 kts | 142° |
| 2026-05-03 20:39 | 33.32722 | -113.16581 | 34825 ft | 515 kts | 141° |
| 2026-05-03 20:40 | 33.27925 | -113.10212 | 34820 ft | 515 kts | 141° |
| 2026-05-03 20:40 | 33.23167 | -113.03873 | 34812 ft | 515 kts | 141° |
| 2026-05-03 20:41 | 33.18387 | -112.97511 | 34834 ft | 515 kts | 141° |
| 2026-05-03 20:41 | 33.13602 | -112.91132 | 34834 ft | 515 kts | 141° |
| 2026-05-03 20:42 | 33.08808 | -112.84763 | 34826 ft | 515 kts | 141° |
| 2026-05-03 20:42 | 33.04047 | -112.78452 | 34858 ft | 516 kts | 141° |
| 2026-05-03 20:43 | 32.99242 | -112.72095 | 34867 ft | 515 kts | 141° |
| 2026-05-03 20:43 | 32.95290 | -112.64851 | 34897 ft | 544 kts | 112° |
| 2026-05-03 20:43 | 32.94606 | -112.60389 | 34911 ft | 552 kts | 97° |
| 2026-05-03 20:44 | 32.94360 | -112.55816 | 34913 ft | 554 kts | 96° |
| 2026-05-03 20:44 | 32.93732 | -112.46697 | 34843 ft | 552 kts | 98° |
| 2026-05-03 20:45 | 32.92947 | -112.37629 | 34833 ft | 551 kts | 98° |
| 2026-05-03 20:45 | 32.92119 | -112.28544 | 34831 ft | 552 kts | 99° |
| 2026-05-03 20:46 | 32.91284 | -112.19527 | 34835 ft | 552 kts | 99° |
| 2026-05-03 20:46 | 32.90436 | -112.10452 | 34864 ft | 551 kts | 99° |
| 2026-05-03 20:47 | 32.89580 | -112.01380 | 34893 ft | 551 kts | 99° |
| 2026-05-03 20:47 | 32.88717 | -111.92306 | 34912 ft | 551 kts | 100° |
| 2026-05-03 20:48 | 32.87043 | -111.83456 | 34939 ft | 547 kts | 110° |
| 2026-05-03 20:48 | 32.85036 | -111.74740 | 34913 ft | 546 kts | 109° |
| 2026-05-03 20:49 | 32.83074 | -111.66006 | 34912 ft | 547 kts | 109° |
| 2026-05-03 20:49 | 32.81116 | -111.57266 | 34846 ft | 547 kts | 109° |
| 2026-05-03 20:50 | 32.79160 | -111.48564 | 34872 ft | 548 kts | 109° |
| 2026-05-03 20:50 | 32.77185 | -111.39797 | 34900 ft | 548 kts | 109° |
| 2026-05-03 20:51 | 32.75203 | -111.31040 | 34898 ft | 548 kts | 109° |
| 2026-05-03 20:51 | 32.73221 | -111.22296 | 34903 ft | 548 kts | 109° |
| 2026-05-03 20:52 | 32.71231 | -111.13557 | 34919 ft | 548 kts | 109° |
| 2026-05-03 20:52 | 32.69246 | -111.04871 | 34908 ft | 548 kts | 109° |
| 2026-05-03 20:53 | 32.67244 | -110.96139 | 34912 ft | 548 kts | 109° |
| 2026-05-03 20:53 | 32.65223 | -110.87358 | 34902 ft | 551 kts | 110° |
| 2026-05-03 20:54 | 32.63212 | -110.78643 | 34924 ft | 550 kts | 110° |
| 2026-05-03 20:54 | 32.60175 | -110.65546 | 34924 ft | 549 kts | 110° |
| 2026-05-03 20:55 | 32.58315 | -110.56748 | 34964 ft | 552 kts | 103° |
| 2026-05-03 20:55 | 32.57179 | -110.47698 | 34937 ft | 554 kts | 101° |
| 2026-05-03 20:56 | 32.56052 | -110.38662 | 34948 ft | 553 kts | 102° |
| 2026-05-03 20:56 | 32.54908 | -110.29657 | 34944 ft | 552 kts | 102° |
| 2026-05-03 20:57 | 32.53761 | -110.20719 | 34926 ft | 548 kts | 102° |
| 2026-05-03 20:57 | 32.52605 | -110.11795 | 34960 ft | 550 kts | 102° |
| 2026-05-03 20:58 | 32.51438 | -110.02832 | 34942 ft | 550 kts | 102° |
| 2026-05-03 20:58 | 32.50265 | -109.93867 | 34944 ft | 550 kts | 102° |
| 2026-05-03 20:59 | 32.49284 | -109.86414 | 34925 ft | 550 kts | 102° |
| 2026-05-03 20:59 | 32.47908 | -109.75999 | 34922 ft | 548 kts | 102° |
| 2026-05-03 21:00 | 32.47115 | -109.70041 | 34921 ft | 548 kts | 102° |
| 2026-05-03 21:00 | 32.45725 | -109.59644 | 34915 ft | 549 kts | 102° |
| 2026-05-03 21:01 | 32.44527 | -109.50716 | 34914 ft | 549 kts | 102° |
| 2026-05-03 21:01 | 32.43321 | -109.41784 | 34912 ft | 549 kts | 102° |
| 2026-05-03 21:02 | 32.42111 | -109.32865 | 34937 ft | 546 kts | 102° |
| 2026-05-03 21:02 | 32.40897 | -109.23980 | 34925 ft | 547 kts | 102° |
| 2026-05-03 21:03 | 32.39678 | -109.15089 | 34921 ft | 547 kts | 102° |
| 2026-05-03 21:03 | 32.38457 | -109.06247 | 34926 ft | 548 kts | 102° |
| 2026-05-03 21:04 | 32.37224 | -108.97339 | 34940 ft | 547 kts | 102° |
| 2026-05-03 21:04 | 32.35983 | -108.88444 | 34944 ft | 548 kts | 102° |
| 2026-05-03 21:05 | 32.34742 | -108.79559 | 34963 ft | 547 kts | 102° |
| 2026-05-03 21:05 | 32.33491 | -108.70647 | 35102 ft | 549 kts | 102° |
| 2026-05-03 21:06 | 32.32226 | -108.61738 | 35103 ft | 549 kts | 102° |
| 2026-05-03 21:06 | 32.30972 | -108.52894 | 35083 ft | 549 kts | 102° |
| 2026-05-03 21:07 | 32.29694 | -108.43975 | 35049 ft | 548 kts | 102° |
| 2026-05-03 21:07 | 32.28405 | -108.35083 | 35017 ft | 549 kts | 101° |
| 2026-05-03 21:08 | 32.27118 | -108.26185 | 34985 ft | 549 kts | 101° |
| 2026-05-03 21:08 | 32.26031 | -108.17241 | 34988 ft | 550 kts | 99° |
| 2026-05-03 21:09 | 32.25034 | -108.08286 | 34734 ft | 546 kts | 99° |
| 2026-05-03 21:09 | 32.24548 | -108.03952 | 34307 ft | 528 kts | 99° |
| 2026-05-03 21:09 | 32.24065 | -107.99693 | 33482 ft | 519 kts | 99° |
| 2026-05-03 21:10 | 32.23590 | -107.95523 | 32872 ft | 504 kts | 99° |
| 2026-05-03 21:10 | 32.23123 | -107.91449 | 32157 ft | 495 kts | 99° |
| 2026-05-03 21:10 | 32.22666 | -107.87474 | 31509 ft | 484 kts | 99° |
| 2026-05-03 21:10 | 32.22213 | -107.83556 | 30881 ft | 480 kts | 99° |
| 2026-05-03 21:11 | 32.21758 | -107.79637 | 30374 ft | 484 kts | 99° |
| 2026-05-03 21:11 | 32.21300 | -107.75679 | 29643 ft | 490 kts | 99° |
| 2026-05-03 21:11 | 32.20839 | -107.71680 | 29039 ft | 493 kts | 98° |
| 2026-05-03 21:11 | 32.20374 | -107.67665 | 28400 ft | 493 kts | 99° |
| 2026-05-03 21:12 | 32.19908 | -107.63651 | 27718 ft | 494 kts | 99° |
| 2026-05-03 21:12 | 32.19441 | -107.59639 | 27068 ft | 490 kts | 99° |
| 2026-05-03 21:12 | 32.18986 | -107.55723 | 26402 ft | 484 kts | 99° |
| 2026-05-03 21:12 | 32.18528 | -107.51812 | 25755 ft | 479 kts | 99° |
| 2026-05-03 21:13 | 32.18071 | -107.47931 | 25112 ft | 474 kts | 99° |
| 2026-05-03 21:13 | 32.17619 | -107.44091 | 24471 ft | 470 kts | 100° |
| 2026-05-03 21:13 | 32.17170 | -107.40293 | 23833 ft | 465 kts | 100° |
| 2026-05-03 21:13 | 32.16725 | -107.36535 | 23165 ft | 459 kts | 100° |
| 2026-05-03 21:14 | 32.16286 | -107.32838 | 22586 ft | 450 kts | 100° |
| 2026-05-03 21:14 | 32.15855 | -107.29215 | 21995 ft | 443 kts | 100° |
| 2026-05-03 21:14 | 32.15429 | -107.25643 | 21430 ft | 435 kts | 99° |
| 2026-05-03 21:14 | 32.15009 | -107.22136 | 20883 ft | 428 kts | 99° |
| 2026-05-03 21:15 | 32.14595 | -107.18685 | 20329 ft | 421 kts | 99° |
| 2026-05-03 21:15 | 32.14185 | -107.15283 | 19787 ft | 415 kts | 99° |
| 2026-05-03 21:15 | 32.13782 | -107.11934 | 19258 ft | 409 kts | 99° |
| 2026-05-03 21:15 | 32.13384 | -107.08638 | 18728 ft | 403 kts | 99° |
| 2026-05-03 21:16 | 32.12991 | -107.05385 | 18184 ft | 397 kts | 99° |
| 2026-05-03 21:16 | 32.12609 | -107.02231 | 17688 ft | 389 kts | 99° |
| 2026-05-03 21:16 | 32.12228 | -106.99096 | 17193 ft | 383 kts | 99° |
| 2026-05-03 21:16 | 32.11798 | -106.96013 | 16755 ft | 379 kts | 104° |
| 2026-05-03 21:17 | 32.11120 | -106.93014 | 16294 ft | 378 kts | 107° |
| 2026-05-03 21:17 | 32.10651 | -106.91026 | 16015 ft | 378 kts | 107° |
| 2026-05-03 21:17 | 32.09740 | -106.87025 | 15383 ft | 377 kts | 106° |
| 2026-05-03 21:17 | 32.09075 | -106.84047 | 14962 ft | 375 kts | 106° |
| 2026-05-03 21:18 | 32.08420 | -106.81091 | 14484 ft | 369 kts | 106° |
| 2026-05-03 21:18 | 32.07736 | -106.78203 | 14053 ft | 362 kts | 107° |
| 2026-05-03 21:18 | 32.07049 | -106.75364 | 13536 ft | 357 kts | 107° |
| 2026-05-03 21:18 | 32.06380 | -106.72584 | 13097 ft | 350 kts | 107° |
| 2026-05-03 21:19 | 32.05716 | -106.69847 | 12649 ft | 344 kts | 108° |
| 2026-05-03 21:19 | 32.05051 | -106.67164 | 12193 ft | 338 kts | 108° |
| 2026-05-03 21:19 | 32.04399 | -106.64521 | 11749 ft | 333 kts | 107° |
| 2026-05-03 21:19 | 32.03758 | -106.61921 | 11326 ft | 328 kts | 108° |
| 2026-05-03 21:20 | 32.03132 | -106.59381 | 10901 ft | 324 kts | 108° |
| 2026-05-03 21:20 | 32.02506 | -106.56843 | 10357 ft | 323 kts | 107° |
| 2026-05-03 21:20 | 32.01881 | -106.54308 | 9913 ft | 319 kts | 107° |
| 2026-05-03 21:20 | 32.01266 | -106.51813 | 9469 ft | 314 kts | 107° |
| 2026-05-03 21:21 | 32.00663 | -106.49371 | 9139 ft | 303 kts | 107° |
| 2026-05-03 21:21 | 32.00117 | -106.47080 | 8857 ft | 279 kts | 105° |
| 2026-05-03 21:21 | 31.99727 | -106.44924 | 8627 ft | 259 kts | 103° |
| 2026-05-03 21:21 | 31.99388 | -106.42899 | 8533 ft | 247 kts | 103° |
| 2026-05-03 21:22 | 31.99042 | -106.40917 | 8465 ft | 247 kts | 103° |
| 2026-05-03 21:22 | 31.98688 | -106.38942 | 8398 ft | 246 kts | 103° |
| 2026-05-03 21:22 | 31.98336 | -106.37001 | 8298 ft | 244 kts | 103° |
| 2026-05-03 21:22 | 31.97985 | -106.35074 | 8095 ft | 235 kts | 104° |
| 2026-05-03 21:23 | 31.97656 | -106.33267 | 8030 ft | 218 kts | 103° |
| 2026-05-03 21:23 | 31.97327 | -106.31561 | 7891 ft | 211 kts | 109° |
| 2026-05-03 21:23 | 31.96528 | -106.30124 | 7256 ft | 215 kts | 146° |
| 2026-05-03 21:23 | 31.95117 | -106.29647 | 6698 ft | 216 kts | 182° |
| 2026-05-03 21:24 | 31.93629 | -106.29928 | 6219 ft | 216 kts | 192° |
| 2026-05-03 21:24 | 31.92220 | -106.30223 | 6094 ft | 194 kts | 182° |
| 2026-05-03 21:24 | 31.90973 | -106.29835 | 6032 ft | 185 kts | 152° |
| 2026-05-03 21:24 | 31.89750 | -106.29423 | 5920 ft | 190 kts | 187° |
| 2026-05-03 21:25 | 31.88590 | -106.30060 | 5775 ft | 179 kts | 214° |
| 2026-05-03 21:25 | 31.87599 | -106.30872 | 5535 ft | 169 kts | 209° |
| 2026-05-03 21:25 | 31.86705 | -106.31663 | 5281 ft | 156 kts | 227° |
| 2026-05-03 21:25 | 31.86055 | -106.32617 | 5103 ft | 150 kts | 223° |
| 2026-05-03 21:26 | 31.85236 | -106.33373 | 5010 ft | 148 kts | 215° |
| 2026-05-03 21:26 | 31.84420 | -106.34103 | 4808 ft | 146 kts | 226° |
| 2026-05-03 21:26 | 31.83740 | -106.34986 | 4586 ft | 147 kts | 229° |
| 2026-05-03 21:26 | 31.83091 | -106.35902 | 4295 ft | 143 kts | 226° |
| 2026-05-03 21:27 | 31.82451 | -106.36779 | 4067 ft | 140 kts | 231° |
| 2026-05-03 21:27 | 31.81841 | -106.37622 | 3947 ft | 124 kts | 231° |
| 2026-05-03 21:27 | 31.81364 | -106.38304 | 3944 ft | 89 kts | 229° |
| 2026-05-03 21:27 | 31.81041 | -106.38753 | 3947 ft | 56 kts | 230° |
| 2026-05-03 21:28 | 31.80856 | -106.39008 | 3946 ft | 29 kts | 224° |
| 2026-05-03 21:28 | 31.80686 | -106.39112 | 3945 ft | 23 kts | 199° |
| 2026-05-03 21:28 | 31.80579 | -106.39158 | 3944 ft | 14 kts | 200° |
| 2026-05-03 21:28 | 31.80482 | -106.39199 | 3944 ft | 16 kts | 200° |
| 2026-05-03 21:29 | 31.80375 | -106.39243 | 3944 ft | 17 kts | 199° |
| 2026-05-03 21:29 | 31.80263 | -106.39293 | 3945 ft | 17 kts | 210° |
| 2026-05-03 21:29 | 31.80185 | -106.39365 | 3945 ft | 14 kts | 214° |
| 2026-05-03 21:29 | 31.80127 | -106.39423 | 3945 ft | 9 kts | 206° |
| 2026-05-03 21:30 | 31.80082 | -106.39426 | 3945 ft | 4 kts | 169° |
| 2026-05-03 21:30 | 31.80062 | -106.39421 | 3945 ft | 1 kts | 169° |
| 2026-05-03 21:30 | 31.80061 | -106.39421 | 3945 ft | 0 kts | 169° |
| 2026-05-03 21:42 | 31.80069 | -106.39423 | 3944 ft | 2 kts | 168° |
| 2026-05-03 21:42 | 31.80086 | -106.39427 | 3945 ft | 2 kts | 167° |
| 2026-05-03 21:42 | 31.80102 | -106.39432 | 3945 ft | 2 kts | 164° |
| 2026-05-03 21:42 | 31.80117 | -106.39438 | 3945 ft | 2 kts | 159° |
| 2026-05-03 21:43 | 31.80132 | -106.39446 | 3945 ft | 2 kts | 146° |
| 2026-05-03 21:43 | 31.80143 | -106.39460 | 3945 ft | 2 kts | 110° |
| 2026-05-03 21:43 | 31.80144 | -106.39471 | 3945 ft | 0 kts | 96° |
| 2026-05-03 21:44 | 31.80144 | -106.39470 | 3945 ft | 1 kts | 96° |
| 2026-05-03 21:45 | 31.80142 | -106.39444 | 3945 ft | 6 kts | 95° |
| 2026-05-03 21:45 | 31.80162 | -106.39384 | 3944 ft | 10 kts | 38° |
| 2026-05-03 21:45 | 31.80236 | -106.39319 | 3945 ft | 15 kts | 41° |
| 2026-05-03 21:45 | 31.80325 | -106.39222 | 3944 ft | 20 kts | 43° |
| 2026-05-03 21:46 | 31.80434 | -106.39103 | 3944 ft | 23 kts | 43° |
| 2026-05-03 21:46 | 31.80559 | -106.38965 | 3944 ft | 26 kts | 43° |
| 2026-05-03 21:46 | 31.80696 | -106.38814 | 3944 ft | 27 kts | 43° |
| 2026-05-03 21:46 | 31.80835 | -106.38659 | 3944 ft | 28 kts | 47° |
| 2026-05-03 21:47 | 31.80962 | -106.38483 | 3945 ft | 28 kts | 50° |
| 2026-05-03 21:47 | 31.81089 | -106.38307 | 3945 ft | 28 kts | 50° |
| 2026-05-03 21:47 | 31.81216 | -106.38130 | 3944 ft | 28 kts | 50° |
| 2026-05-03 21:47 | 31.81343 | -106.37952 | 3944 ft | 28 kts | 50° |
| 2026-05-03 21:48 | 31.81469 | -106.37776 | 3944 ft | 28 kts | 50° |
| 2026-05-03 21:48 | 31.81596 | -106.37600 | 3945 ft | 28 kts | 49° |
| 2026-05-03 21:48 | 31.81716 | -106.37432 | 3945 ft | 25 kts | 50° |
| 2026-05-03 21:48 | 31.81827 | -106.37277 | 3944 ft | 21 kts | 49° |
| 2026-05-03 21:49 | 31.81922 | -106.37147 | 3944 ft | 21 kts | 50° |
| 2026-05-03 21:49 | 31.82011 | -106.37023 | 3944 ft | 19 kts | 50° |
| 2026-05-03 21:49 | 31.82065 | -106.36950 | 3944 ft | 11 kts | 49° |